Dobrodošli na spletni strani vremenske postaje Senovo. Vse informacije so informativnega značaja, saj vremenska postaja ni del državne mreže meteoroloških postaj.

AKTUALNIH OBVESTIL NI.


Nevihte Od: 17-07-2018 12:00 Do: 20:59 Opozorilo za: Nevihte Stopnja: Rumena info button

Pogled proti Armezu več informacij Pogled proti Armezu


Bohor več informacij Bohor


Lisca več informacij Lisca


opozorilo za Nevihte več informacij blitzortung!


Radar padavin več informacij rain snow radar


Obiščite še:

Template documentation
and downloads

And another site



METAR v bližini

   
LJLJ - Ljubljana
Posodobljeno: 17-07-2018 15:30
nekaj oblakov  
nekaj oblakov  
   Veter: Sever 18.5 km/h
Veter: Sever 18.5 km/h
Temperatura: 27°C
Točka rosišča: 12°C
Vlažnost: 39%
Zračni tlak: 1012 hPa
Oblaki: nekaj oblakov
Vidljivost: More than 10 km
Podrobnosti o oblakih: nekaj oblakov 1981.2 m
LJLJ 171330Z 35010KT 320V030 9999 FEW065 27/12 Q1012 NOSIG
LJCE - Cerklje ob Krki
Posodobljeno: 17-07-2018 15:30
Light Showers, Dež, delno oblačno  
Light Showers, Dež, delno oblačno  
   Veter: SSZ 13 km/h<br />Gust to 13 km/h
Veter: SSZ 13 km/h
Gust to 13 km/h
Temperatura: 25°C
Točka rosišča: 17°C
Vlažnost: 61%
Zračni tlak: 1011 hPa
Oblaki: delno oblačno
Vidljivost: More than 10 km
Podrobnosti o oblakih: delno oblačno
LJCE 171330Z AUTO 33007G17KT 260V080 9999 -SHRA NSC 25/17 Q1011
LJMB - Maribor
Posodobljeno: 17-07-2018 15:30
delno oblačno  
delno oblačno  
   Veter: Sever 20.4 km/h
Veter: Sever 20.4 km/h
Temperatura: 27°C
Točka rosišča: 12°C
Vlažnost: 39%
Zračni tlak: 1011 hPa
Oblaki: delno oblačno
Vidljivost: More than 10 km
Podrobnosti o oblakih: nekaj oblakov 1127.8 m,
delno oblačno 2133.6 m
LJMB 171330Z 35011KT 310V040 9999 FEW037TCU SCT070 27/12 Q1011
LJPZ - Portorož
Posodobljeno: 17-07-2018 15:30
nekaj oblakov  
nekaj oblakov  
   Veter: SZ 18.5 km/h
Veter: SZ 18.5 km/h
Temperatura: 28°C
toplotni index: 29°C
Točka rosišča: 20°C
Vlažnost: 62%
Zračni tlak: 1011 hPa
Oblaki: nekaj oblakov
Vidljivost: More than 10 km
Podrobnosti o oblakih: nekaj oblakov 1524 m
LJPZ 171330Z 31010KT 9999 FEW050TCU 28/20 Q1011
LDRI - Rijeka, Airport, Croatia
Posodobljeno: 17-07-2018 15:30
delno oblačno  
delno oblačno  
   Veter: SSZ 13 km/h
Veter: SSZ 13 km/h
Temperatura: 27°C
toplotni index: 28°C
Točka rosišča: 18°C
Vlažnost: 58%
Zračni tlak: 1010 hPa
Oblaki: delno oblačno
Vidljivost: More than 10 km
Podrobnosti o oblakih: delno oblačno 1219.2 m
LDRI 171330Z 33007KT 9999 SCT040 27/18 Q1010
LOWK - Klagenfurt, Airport, Avstia
Posodobljeno: 17-07-2018 15:20
nekaj oblakov  
nekaj oblakov  
   Veter: različen 3.7 km/h
Veter: različen 3.7 km/h
Temperatura: 25°C
Točka rosišča: 13°C
Vlažnost: 47%
Zračni tlak: 1013 hPa
Oblaki: nekaj oblakov
Vidljivost: More than 10 km
Podrobnosti o oblakih: nekaj oblakov 1828.8 m
LOWK 171320Z VRB02KT 9999 FEW060 25/13 Q1013 TEMPO 34007KT

Script developed by  Saratoga-weather.org Adapted for the template by  Weerstation Leuven

Vremenski podatki so objavljeni na:

European Weather Network

WeatherCloud

Weather Underground

AWEKAS

HAMweather, WeatherForYou, PWS Weather

MapView

Geostik

Slovenia weather network

Oprema, ki se uporablja:

Vremenski program
Cumulus

Vremenski server
Asus

Cumulus

Asus